Time;durP1;ratioP1;P1;durP2;ratioP2;P2;SDS_P1;SDS_P2;PMS_P1;PMS_P2;Temp;Humidity;BMP_temperature;BMP_pressure;BME280_temperature;BME280_humidity;BME280_pressure;Samples;Min_cycle;Max_cycle;Signal;HPM_P1;HPM_P2
2022/08/07 00:01:14;;;;;;;;;;;665.60;1996.80;;;;;;5070694;28;20374;-55
2022/08/07 00:03:39;;;;;;;;;;;665.60;1996.80;;;;;;5071061;28;20003;-56
2022/08/07 00:06:05;;;;;;;;;;;665.60;2022.40;;;;;;5071003;28;20018;-54
2022/08/07 00:08:30;;;;;;;;;;;640.90;2022.40;;;;;;5070916;28;20373;-54
2022/08/07 00:10:56;;;;;;;;;;;640.90;2048.00;;;;;;5071334;28;20282;-54
2022/08/07 00:13:22;;;;;;;;;;;640.70;2048.00;;;;;;5070834;28;20445;-55
2022/08/07 00:15:48;;;;;;;;;;;640.90;2048.00;;;;;;5070884;28;19958;-55
2022/08/07 00:18:15;;;;;;;;;;;640.90;2073.60;;;;;;5070809;28;19909;-55
2022/08/07 00:20:40;;;;;;;;;;;640.70;2073.60;;;;;;5070779;28;20046;-56
2022/08/07 00:23:06;;;;;;;;;;;640.70;2073.60;;;;;;5070975;28;19955;-54
2022/08/07 00:25:31;;;;;;;;;;;640.70;2099.20;;;;;;5070837;28;19913;-55
2022/08/07 00:27:57;;;;;;;;;;;640.60;2150.40;;;;;;5060261;28;19920;-54
2022/08/07 00:30:23;;;;;;;;;;;640.60;2150.40;;;;;;5050509;28;19908;-55
2022/08/07 00:32:48;;;;;;;;;;;640.50;2176.00;;;;;;5050691;28;19965;-55
2022/08/07 00:35:14;;;;;;;;;;;640.50;2176.00;;;;;;5053578;28;20015;-56
2022/08/07 00:37:40;;;;;;;;;;;640.50;2176.00;;;;;;5054681;28;19909;-56
2022/08/07 00:40:06;;;;;;;;;;;640.40;2227.20;;;;;;5054705;28;19963;-54
2022/08/07 00:42:32;;;;;;;;;;;640.40;2227.20;;;;;;5054483;28;20347;-54
2022/08/07 00:44:57;;;;;;;;;;;640.40;2227.20;;;;;;5054659;28;19939;-55
2022/08/07 00:47:23;;;;;;;;;;;640.40;2227.20;;;;;;5054238;28;19917;-54
2022/08/07 00:49:49;;;;;;;;;;;640.40;2252.80;;;;;;5054465;28;19932;-55
2022/08/07 00:52:15;;;;;;;;;;;640.20;2278.40;;;;;;5054267;28;19909;-55
2022/08/07 00:54:40;;;;;;;;;;;640.20;2278.40;;;;;;5054353;28;20370;-56
2022/08/07 00:57:06;;;;;;;;;;;640.20;2252.80;;;;;;5054293;28;20011;-55
2022/08/07 00:59:33;;;;;;;;;;;640.20;2278.40;;;;;;5053869;28;20412;-55
2022/08/07 01:02:01;;;;;;;;;;;640.10;2329.60;;;;;;5054136;28;19932;-56
2022/08/07 01:04:27;;;;;;;;;;;640.10;2329.60;;;;;;5054190;28;19913;-56
2022/08/07 01:06:52;;;;;;;;;;;640.00;2355.20;;;;;;5053954;28;20290;-54
2022/08/07 01:09:18;;;;;;;;;;;640.00;2380.80;;;;;;5054113;28;19908;-55
2022/08/07 01:11:43;;;;;;;;;;;640.00;2355.20;;;;;;5053738;28;19910;-56
2022/08/07 01:14:09;;;;;;;;;;;640.00;2406.40;;;;;;5054117;28;19916;-55
2022/08/07 01:16:35;;;;;;;;;;;640.10;2406.40;;;;;;5053893;28;19908;-56
2022/08/07 01:19:02;;;;;;;;;;;615.30;2406.40;;;;;;5053649;28;19931;-55
2022/08/07 01:21:27;;;;;;;;;;;615.30;2406.40;;;;;;5053834;28;20362;-55
2022/08/07 01:23:54;;;;;;;;;;;615.20;2432.00;;;;;;5053750;28;20016;-54
2022/08/07 01:26:21;;;;;;;;;;;615.20;2432.00;;;;;;5053839;28;19921;-56
2022/08/07 01:28:48;;;;;;;;;;;615.20;2432.00;;;;;;5053438;28;19917;-55
2022/08/07 01:31:15;;;;;;;;;;;615.10;2432.00;;;;;;5053192;28;19912;-56
2022/08/07 01:33:41;;;;;;;;;;;615.10;2432.00;;;;;;5053578;28;19920;-55
2022/08/07 01:36:08;;;;;;;;;;;615.10;2432.00;;;;;;5053744;28;19913;-55
2022/08/07 01:38:34;;;;;;;;;;;615.00;2432.00;;;;;;5053262;28;19920;-56
2022/08/07 01:41:01;;;;;;;;;;;615.00;2432.00;;;;;;5053386;28;19999;-56
2022/08/07 01:43:27;;;;;;;;;;;615.00;2432.00;;;;;;5053399;28;19912;-54
2022/08/07 01:45:53;;;;;;;;;;;615.00;2432.00;;;;;;5052619;28;19920;-54
2022/08/07 01:48:19;;;;;;;;;;;614.90;2432.00;;;;;;5053363;28;19913;-55
2022/08/07 01:50:48;;;;;;;;;;;615.00;2432.00;;;;;;5053380;28;19977;-56
2022/08/07 01:53:15;;;;;;;;;;;615.00;2432.00;;;;;;5053090;28;20381;-56
2022/08/07 01:55:44;;;;;;;;;;;614.90;2432.00;;;;;;5053032;28;19944;-56
2022/08/07 01:58:12;;;;;;;;;;;614.90;2432.00;;;;;;5052911;28;20283;-56
2022/08/07 02:00:40;;;;;;;;;;;614.80;2432.00;;;;;;5052738;28;19927;-55
2022/08/07 02:03:09;;;;;;;;;;;614.80;2432.00;;;;;;5053027;28;19919;-56
2022/08/07 02:05:40;;;;;;;;;;;614.80;2432.00;;;;;;5052971;28;19917;-54
2022/08/07 02:08:11;;;;;;;;;;;614.70;2432.00;;;;;;5052933;28;19970;-56
2022/08/07 02:10:38;;;;;;;;;;;614.70;2432.00;;;;;;5052923;28;20359;-55
2022/08/07 02:13:04;;;;;;;;;;;614.70;2432.00;;;;;;5052570;28;19916;-55
2022/08/07 02:15:30;;;;;;;;;;;614.60;2432.00;;;;;;5052760;28;19909;-56
2022/08/07 02:17:57;;;;;;;;;;;614.60;2432.00;;;;;;5052891;28;19913;-54
2022/08/07 02:20:23;;;;;;;;;;;614.40;2432.00;;;;;;5052668;28;19915;-54
2022/08/07 02:22:51;;;;;;;;;;;614.40;2432.00;;;;;;5052915;28;19909;-56
2022/08/07 02:25:17;;;;;;;;;;;614.40;2432.00;;;;;;5052638;28;19972;-56
2022/08/07 02:27:44;;;;;;;;;;;589.70;2432.00;;;;;;5052395;28;19919;-54
2022/08/07 02:30:11;;;;;;;;;;;589.70;2432.00;;;;;;5052236;28;20035;-56
2022/08/07 02:32:37;;;;;;;;;;;589.70;2432.00;;;;;;5052500;28;19928;-56
2022/08/07 02:35:03;;;;;;;;;;;589.70;2432.00;;;;;;5052215;28;19930;-56
2022/08/07 02:37:30;;;;;;;;;;;589.70;2432.00;;;;;;5052576;28;19909;-56
2022/08/07 02:39:57;;;;;;;;;;;589.70;2432.00;;;;;;5052647;28;20313;-55
2022/08/07 02:42:23;;;;;;;;;;;589.60;2432.00;;;;;;5052352;28;19962;-54
2022/08/07 02:44:49;;;;;;;;;;;589.50;2432.00;;;;;;5052268;28;19909;-56
2022/08/07 02:47:18;;;;;;;;;;;589.50;2432.00;;;;;;5052168;28;19917;-56
2022/08/07 02:49:44;;;;;;;;;;;589.60;2432.00;;;;;;5052024;28;19916;-56
2022/08/07 02:52:12;;;;;;;;;;;589.50;2432.00;;;;;;5052390;28;19909;-56
2022/08/07 02:54:39;;;;;;;;;;;589.50;2432.00;;;;;;5052282;28;20277;-54
2022/08/07 02:57:07;;;;;;;;;;;589.40;2432.00;;;;;;5051594;28;19908;-54
2022/08/07 02:59:33;;;;;;;;;;;589.40;2432.00;;;;;;5051649;28;19909;-56
2022/08/07 03:01:59;;;;;;;;;;;589.40;2432.00;;;;;;5051873;28;20271;-54
2022/08/07 03:04:26;;;;;;;;;;;589.20;2432.00;;;;;;5051951;28;19909;-56
2022/08/07 03:06:52;;;;;;;;;;;589.30;2432.00;;;;;;5051799;28;19920;-55
2022/08/07 03:09:20;;;;;;;;;;;589.20;2432.00;;;;;;5051849;28;19909;-55
2022/08/07 03:11:46;;;;;;;;;;;589.30;2432.00;;;;;;5051963;28;20007;-56
2022/08/07 03:14:12;;;;;;;;;;;589.20;2432.00;;;;;;5051379;28;19908;-55
2022/08/07 03:16:38;;;;;;;;;;;589.20;2432.00;;;;;;5051585;28;19912;-55
2022/08/07 03:19:03;;;;;;;;;;;589.20;2432.00;;;;;;5051767;28;19909;-56
2022/08/07 03:21:29;;;;;;;;;;;589.20;2432.00;;;;;;5067363;28;19909;-55
2022/08/07 03:23:55;;;;;;;;;;;589.10;2432.00;;;;;;5051625;28;19909;-56
2022/08/07 03:26:23;;;;;;;;;;;589.10;2432.00;;;;;;5051275;28;19917;-55
2022/08/07 03:28:49;;;;;;;;;;;589.20;2432.00;;;;;;5051395;28;20371;-55
2022/08/07 03:31:17;;;;;;;;;;;589.10;2432.00;;;;;;5051109;28;19920;-56
2022/08/07 03:33:44;;;;;;;;;;;589.20;2432.00;;;;;;5051242;28;20359;-54
2022/08/07 03:36:13;;;;;;;;;;;589.10;2432.00;;;;;;5051391;28;19909;-56
2022/08/07 03:38:39;;;;;;;;;;;589.10;2432.00;;;;;;5051474;28;19939;-54
2022/08/07 03:41:06;;;;;;;;;;;589.00;2432.00;;;;;;5051412;28;19939;-56
2022/08/07 03:43:32;;;;;;;;;;;589.00;2432.00;;;;;;5051018;28;19909;-56
2022/08/07 03:45:58;;;;;;;;;;;589.00;2432.00;;;;;;5051081;28;19974;-55
2022/08/07 03:48:24;;;;;;;;;;;588.90;2432.00;;;;;;5051102;28;19944;-54
2022/08/07 03:50:51;;;;;;;;;;;588.90;2432.00;;;;;;5051162;28;19916;-56
2022/08/07 03:53:16;;;;;;;;;;;588.90;2432.00;;;;;;5051247;28;20175;-56
2022/08/07 03:55:42;;;;;;;;;;;588.90;2432.00;;;;;;5050851;28;19908;-54
2022/08/07 03:58:08;;;;;;;;;;;588.90;2432.00;;;;;;5051067;28;19909;-54
2022/08/07 04:00:35;;;;;;;;;;;589.00;2432.00;;;;;;5050612;28;19942;-56
2022/08/07 04:03:00;;;;;;;;;;;588.90;2432.00;;;;;;5051097;28;19920;-56
2022/08/07 04:05:26;;;;;;;;;;;589.00;2432.00;;;;;;5051126;28;19909;-55
2022/08/07 04:07:52;;;;;;;;;;;589.10;2432.00;;;;;;5052219;28;19956;-55
2022/08/07 04:10:18;;;;;;;;;;;589.10;2432.00;;;;;;5057680;28;19909;-54
2022/08/07 04:12:43;;;;;;;;;;;589.10;2432.00;;;;;;5057559;28;19975;-55
2022/08/07 04:15:10;;;;;;;;;;;589.20;2432.00;;;;;;5057620;28;19923;-56
2022/08/07 04:17:36;;;;;;;;;;;589.20;2432.00;;;;;;5057489;28;19912;-56
2022/08/07 04:20:02;;;;;;;;;;;589.20;2432.00;;;;;;5057488;28;19909;-54
2022/08/07 04:22:28;;;;;;;;;;;589.20;2432.00;;;;;;5057588;28;20003;-55
2022/08/07 04:24:53;;;;;;;;;;;589.30;2432.00;;;;;;5057481;28;20003;-56
2022/08/07 04:27:19;;;;;;;;;;;589.40;2432.00;;;;;;5057414;28;20003;-56
2022/08/07 04:29:45;;;;;;;;;;;589.50;2432.00;;;;;;5057044;28;20350;-55
2022/08/07 04:32:11;;;;;;;;;;;589.50;2432.00;;;;;;5057203;28;19932;-55
2022/08/07 04:34:37;;;;;;;;;;;589.70;2432.00;;;;;;5057713;28;19962;-56
2022/08/07 04:37:04;;;;;;;;;;;589.70;2432.00;;;;;;5057364;28;19916;-55
2022/08/07 04:39:30;;;;;;;;;;;589.70;2432.00;;;;;;5057293;28;20389;-54
2022/08/07 04:41:55;;;;;;;;;;;614.40;2432.00;;;;;;5057320;28;19909;-55
2022/08/07 04:44:21;;;;;;;;;;;614.40;2432.00;;;;;;5057103;28;20376;-54
2022/08/07 04:47:02;;;;;;;;;;;614.40;2432.00;;;;;;5057331;28;19964;-56
2022/08/07 04:49:51;;;;;;;;;;;614.80;2432.00;;;;;;5057637;28;20050;-54
2022/08/07 04:52:21;;;;;;;;;;;615.00;2432.00;;;;;;5057642;28;20236;-56
2022/08/07 04:54:53;;;;;;;;;;;615.00;2432.00;;;;;;5057376;28;19913;-56
2022/08/07 04:57:28;;;;;;;;;;;615.10;2432.00;;;;;;5057214;28;19908;-54
2022/08/07 05:00:20;;;;;;;;;;;640.00;2432.00;;;;;;5057012;28;19913;-55
2022/08/07 05:03:00;;;;;;;;;;;640.20;2406.40;;;;;;5048740;28;20375;-55
2022/08/07 05:05:32;;;;;;;;;;;640.00;2432.00;;;;;;5057292;28;19915;-54
2022/08/07 05:08:00;;;;;;;;;;;615.20;2432.00;;;;;;5057176;28;20011;-56
2022/08/07 05:10:29;;;;;;;;;;;615.20;2432.00;;;;;;5057057;28;20003;-56
2022/08/07 05:12:57;;;;;;;;;;;615.20;2432.00;;;;;;5057174;28;19915;-55
2022/08/07 05:15:24;;;;;;;;;;;615.20;2432.00;;;;;;5056783;28;19915;-54
2022/08/07 05:17:55;;;;;;;;;;;615.10;2432.00;;;;;;5056932;28;19950;-54
2022/08/07 05:20:25;;;;;;;;;;;615.20;2406.40;;;;;;5054115;28;19912;-54
2022/08/07 05:22:53;;;;;;;;;;;640.20;2380.80;;;;;;5053860;28;20271;-55
2022/08/07 05:25:20;;;;;;;;;;;640.20;2355.20;;;;;;5053753;28;19916;-56
2022/08/07 05:27:46;;;;;;;;;;;640.30;2329.60;;;;;;5053803;28;19923;-55
2022/08/07 05:30:12;;;;;;;;;;;640.20;2329.60;;;;;;5053378;28;20292;-55
2022/08/07 05:32:38;;;;;;;;;;;640.00;2329.60;;;;;;5053642;28;19974;-55
2022/08/07 05:35:05;;;;;;;;;;;640.10;2355.20;;;;;;5053443;28;20012;-55
2022/08/07 05:37:31;;;;;;;;;;;640.20;2304.00;;;;;;5053435;28;19909;-54
2022/08/07 05:39:57;;;;;;;;;;;640.50;2278.40;;;;;;5053697;28;19915;-55
2022/08/07 05:42:23;;;;;;;;;;;640.90;2227.20;;;;;;5053445;28;20251;-54
2022/08/07 05:44:49;;;;;;;;;;;640.90;2201.60;;;;;;5053230;28;19932;-54
2022/08/07 05:47:18;;;;;;;;;;;640.70;2201.60;;;;;;5053334;28;19916;-56
2022/08/07 05:49:48;;;;;;;;;;;640.60;2227.20;;;;;;5053247;28;19909;-55
2022/08/07 05:52:13;;;;;;;;;;;640.60;2227.20;;;;;;5053263;28;20371;-55
2022/08/07 05:54:39;;;;;;;;;;;640.70;2201.60;;;;;;5053185;28;19919;-55
2022/08/07 05:57:05;;;;;;;;;;;665.70;2227.20;;;;;;5053379;28;19909;-56
2022/08/07 05:59:35;;;;;;;;;;;666.20;2176.00;;;;;;5052708;28;19915;-56
2022/08/07 06:02:01;;;;;;;;;;;666.30;2124.80;;;;;;5052644;28;19924;-55
2022/08/07 06:04:27;;;;;;;;;;;666.20;2124.80;;;;;;5052837;28;19936;-55
2022/08/07 06:06:53;;;;;;;;;;;666.10;2150.40;;;;;;5052685;28;19971;-55
2022/08/07 06:09:19;;;;;;;;;;;665.90;2150.40;;;;;;5052850;28;19915;-54
2022/08/07 06:11:44;;;;;;;;;;;665.90;2124.80;;;;;;5052782;28;19909;-53
2022/08/07 06:14:10;;;;;;;;;;;666.00;2150.40;;;;;;5052674;28;20011;-56
2022/08/07 06:16:37;;;;;;;;;;;665.80;2150.40;;;;;;5052682;28;19955;-54
2022/08/07 06:19:03;;;;;;;;;;;666.20;2124.80;;;;;;5052647;28;19908;-55
2022/08/07 06:21:29;;;;;;;;;;;665.90;2150.40;;;;;;5052976;28;19916;-56
2022/08/07 06:23:55;;;;;;;;;;;666.00;2124.80;;;;;;5052691;28;20003;-55
2022/08/07 06:26:21;;;;;;;;;;;666.50;2099.20;;;;;;5052279;28;19917;-55
2022/08/07 06:28:56;;;;;;;;;;;666.50;2073.60;;;;;;5052510;28;19913;-55
2022/08/07 06:31:22;;;;;;;;;;;691.20;2073.60;;;;;;5051127;28;19917;-55
2022/08/07 06:33:47;;;;;;;;;;;691.20;2073.60;;;;;;5052310;28;20320;-55
2022/08/07 06:36:13;;;;;;;;;;;691.40;2048.00;;;;;;5052067;28;20338;-55
2022/08/07 06:38:40;;;;;;;;;;;691.50;2022.40;;;;;;5052143;28;19912;-55
2022/08/07 06:41:07;;;;;;;;;;;691.60;2022.40;;;;;;5052404;28;19916;-55
2022/08/07 06:43:34;;;;;;;;;;;691.30;2048.00;;;;;;5052176;28;19909;-56
2022/08/07 06:46:03;;;;;;;;;;;666.30;2073.60;;;;;;5051673;28;19919;-55
2022/08/07 06:48:29;;;;;;;;;;;666.30;2073.60;;;;;;5051964;28;19908;-56
2022/08/07 06:50:55;;;;;;;;;;;666.00;2099.20;;;;;;5051859;28;20422;-55
2022/08/07 06:53:24;;;;;;;;;;;666.00;2099.20;;;;;;5051821;28;19909;-55
2022/08/07 06:55:50;;;;;;;;;;;666.00;2124.80;;;;;;5052074;28;19909;-56
2022/08/07 06:58:18;;;;;;;;;;;666.00;2099.20;;;;;;5052132;28;19913;-55
2022/08/07 07:00:44;;;;;;;;;;;666.20;2099.20;;;;;;5051502;28;19920;-57
2022/08/07 07:03:11;;;;;;;;;;;666.30;2099.20;;;;;;5051883;28;20350;-56
2022/08/07 07:05:37;;;;;;;;;;;666.30;2073.60;;;;;;5051733;28;19913;-56
2022/08/07 07:08:03;;;;;;;;;;;666.20;2099.20;;;;;;5051834;28;19913;-56
2022/08/07 07:10:29;;;;;;;;;;;666.30;2099.20;;;;;;5056723;28;19920;-55
2022/08/07 07:12:58;;;;;;;;;;;666.30;2073.60;;;;;;5079288;28;19954;-55
2022/08/07 07:15:28;;;;;;;;;;;666.40;2048.00;;;;;;5079964;28;19919;-55
2022/08/07 07:18:00;;;;;;;;;;;666.30;2048.00;;;;;;5081134;28;19999;-55
2022/08/07 07:20:32;;;;;;;;;;;666.40;2073.60;;;;;;5080722;28;19920;-55
2022/08/07 07:22:58;;;;;;;;;;;666.20;2073.60;;;;;;5077138;28;19999;-55
2022/08/07 07:25:24;;;;;;;;;;;666.10;2099.20;;;;;;5080073;28;19908;-56
2022/08/07 07:28:02;;;;;;;;;;;666.20;2099.20;;;;;;5081074;28;20396;-56
2022/08/07 07:30:31;;;;;;;;;;;666.10;2073.60;;;;;;5079452;28;19920;-54
2022/08/07 07:32:57;;;;;;;;;;;665.90;2099.20;;;;;;5076922;28;19995;-55
2022/08/07 07:35:23;;;;;;;;;;;665.90;2099.20;;;;;;5079874;28;19977;-57
2022/08/07 07:37:50;;;;;;;;;;;666.10;2099.20;;;;;;5081035;28;19948;-57
2022/08/07 07:40:17;;;;;;;;;;;665.90;2099.20;;;;;;5078895;28;19913;-56
2022/08/07 07:42:47;;;;;;;;;;;666.00;2099.20;;;;;;5074799;28;19913;-57
2022/08/07 07:45:13;;;;;;;;;;;666.00;2099.20;;;;;;5070883;28;19931;-54
2022/08/07 07:47:40;;;;;;;;;;;666.00;2099.20;;;;;;5069104;28;20278;-54
2022/08/07 07:50:06;;;;;;;;;;;666.20;2099.20;;;;;;5070922;28;19934;-56
2022/08/07 07:52:32;;;;;;;;;;;666.30;2073.60;;;;;;5070487;28;20006;-54
2022/08/07 07:54:58;;;;;;;;;;;666.50;2073.60;;;;;;5070604;28;19954;-54
2022/08/07 07:57:24;;;;;;;;;;;691.30;2048.00;;;;;;5070910;28;19962;-56
2022/08/07 07:59:50;;;;;;;;;;;691.40;2022.40;;;;;;5070714;28;19981;-55
2022/08/07 08:02:17;;;;;;;;;;;691.40;2022.40;;;;;;5070730;28;19925;-55
2022/08/07 08:04:43;;;;;;;;;;;691.30;2022.40;;;;;;5070747;28;20405;-55
2022/08/07 08:07:09;;;;;;;;;;;691.70;1996.80;;;;;;5070911;28;20016;-56
2022/08/07 08:09:35;;;;;;;;;;;691.40;2022.40;;;;;;5070331;28;19918;-56
2022/08/07 08:12:02;;;;;;;;;;;691.40;2022.40;;;;;;5070140;28;20362;-57
2022/08/07 08:14:28;;;;;;;;;;;691.60;1996.80;;;;;;5070979;28;20366;-56
2022/08/07 08:16:55;;;;;;;;;;;691.70;1996.80;;;;;;5070519;28;20046;-55
2022/08/07 08:19:24;;;;;;;;;;;691.70;1971.20;;;;;;5070858;28;19908;-56
2022/08/07 08:27:23;;;;;;;;;;;692.00;1971.20;;;;;;5070780;28;19927;-56
2022/08/07 08:29:51;;;;;;;;;;;716.80;1971.20;;;;;;5070531;28;20003;-55
2022/08/07 08:32:19;;;;;;;;;;;716.80;1971.20;;;;;;5070967;28;19963;-55
2022/08/07 08:34:45;;;;;;;;;;;716.80;1971.20;;;;;;5070802;28;19908;-54
2022/08/07 08:37:12;;;;;;;;;;;717.20;1945.60;;;;;;5070558;28;19931;-55
2022/08/07 08:39:39;;;;;;;;;;;717.40;1920.00;;;;;;5070629;28;19913;-55
2022/08/07 08:42:10;;;;;;;;;;;717.50;1894.40;;;;;;5070475;28;19944;-55
2022/08/07 08:44:40;;;;;;;;;;;717.70;1894.40;;;;;;5070645;28;19909;-55
2022/08/07 08:47:07;;;;;;;;;;;742.40;1894.40;;;;;;5070319;28;19923;-56
2022/08/07 08:49:55;;;;;;;;;;;742.40;1894.40;;;;;;5070445;28;20362;-56
2022/08/07 08:52:24;;;;;;;;;;;742.70;1868.80;;;;;;5070393;28;19912;-55
2022/08/07 08:54:52;;;;;;;;;;;743.10;1843.20;;;;;;5070954;28;20003;-56
2022/08/07 08:57:36;;;;;;;;;;;743.20;1817.60;;;;;;5074187;28;20370;-55
2022/08/07 09:00:06;;;;;;;;;;;743.30;1817.60;;;;;;5073854;28;19956;-56
2022/08/07 09:02:37;;;;;;;;;;;743.10;1843.20;;;;;;5074012;28;19921;-56
2022/08/07 09:05:21;;;;;;;;;;;743.20;1817.60;;;;;;5073888;28;19908;-55
2022/08/07 09:07:49;;;;;;;;;;;743.10;1843.20;;;;;;5074302;28;20311;-57
2022/08/07 09:10:15;;;;;;;;;;;768.10;1817.60;;;;;;5073950;28;19908;-56
2022/08/07 09:12:56;;;;;;;;;;;768.10;1792.00;;;;;;5073851;28;20369;-57
2022/08/07 09:15:30;;;;;;;;;;;743.10;1817.60;;;;;;5071892;28;19909;-55
2022/08/07 09:17:59;;;;;;;;;;;743.10;1817.60;;;;;;5071775;28;19920;-55
2022/08/07 09:20:30;;;;;;;;;;;743.30;1817.60;;;;;;5071651;28;19995;-56
2022/08/07 09:22:59;;;;;;;;;;;768.20;1792.00;;;;;;5071943;28;19913;-55
2022/08/07 09:25:27;;;;;;;;;;;768.30;1766.40;;;;;;5071612;28;19908;-56
2022/08/07 09:27:56;;;;;;;;;;;768.10;1766.40;;;;;;5070922;28;19966;-55
2022/08/07 09:30:23;;;;;;;;;;;743.30;1792.00;;;;;;5071329;28;20182;-55
2022/08/07 09:32:48;;;;;;;;;;;768.10;1792.00;;;;;;5071595;28;19966;-55
2022/08/07 09:35:24;;;;;;;;;;;743.10;1817.60;;;;;;5071654;28;19909;-54
2022/08/07 09:37:52;;;;;;;;;;;743.20;1843.20;;;;;;5071647;28;19912;-55
2022/08/07 09:40:33;;;;;;;;;;;768.10;1792.00;;;;;;5071483;28;19978;-56
2022/08/07 09:43:01;;;;;;;;;;;768.30;1792.00;;;;;;5071007;28;19918;-55
2022/08/07 09:45:43;;;;;;;;;;;768.10;1792.00;;;;;;5071411;28;20350;-56
2022/08/07 09:48:12;;;;;;;;;;;768.10;1792.00;;;;;;5071258;28;19920;-56
2022/08/07 09:50:47;;;;;;;;;;;768.30;1766.40;;;;;;5071481;28;19913;-55
2022/08/07 09:53:14;;;;;;;;;;;768.30;1766.40;;;;;;5071133;28;19909;-56
2022/08/07 09:55:58;;;;;;;;;;;768.10;1766.40;;;;;;5071054;28;19987;-56
2022/08/07 09:58:42;;;;;;;;;;;768.10;1792.00;;;;;;5071170;28;20514;-54
2022/08/07 10:01:26;;;;;;;;;;;768.20;1766.40;;;;;;5070972;28;19929;-55
2022/08/07 10:03:52;;;;;;;;;;;768.40;1766.40;;;;;;5070811;28;19965;-56
2022/08/07 10:06:29;;;;;;;;;;;768.10;1792.00;;;;;;5070796;28;19912;-56
2022/08/07 10:09:07;;;;;;;;;;;768.30;1766.40;;;;;;5070470;28;19912;-56
2022/08/07 10:11:45;;;;;;;;;;;768.70;1740.80;;;;;;5070586;28;19916;-56
2022/08/07 10:14:29;;;;;;;;;;;793.70;1766.40;;;;;;5070729;28;19913;-57
2022/08/07 10:17:13;;;;;;;;;;;768.90;1740.80;;;;;;5069967;28;20322;-57
2022/08/07 10:19:46;;;;;;;;;;;768.40;1766.40;;;;;;5070637;28;19908;-56
2022/08/07 10:22:18;;;;;;;;;;;768.40;1766.40;;;;;;5065558;28;20378;-57
2022/08/07 10:24:49;;;;;;;;;;;768.70;1766.40;;;;;;5057698;28;19923;-58
2022/08/07 10:27:16;;;;;;;;;;;793.70;1740.80;;;;;;5056198;28;19920;-56
2022/08/07 10:29:42;;;;;;;;;;;768.80;1740.80;;;;;;5067899;28;20274;-56
2022/08/07 10:32:26;;;;;;;;;;;768.90;1740.80;;;;;;5050334;28;20374;-56
2022/08/07 10:35:10;;;;;;;;;;;793.80;1740.80;;;;;;5049893;28;19919;-56
2022/08/07 10:37:50;;;;;;;;;;;794.00;1740.80;;;;;;5050385;28;19912;-56
2022/08/07 10:40:23;;;;;;;;;;;793.90;1740.80;;;;;;5063733;28;19919;-56
2022/08/07 10:42:57;;;;;;;;;;;768.90;1740.80;;;;;;5070427;28;19909;-55
2022/08/07 10:45:32;;;;;;;;;;;768.80;1740.80;;;;;;5070029;28;19912;-55
2022/08/07 10:48:03;;;;;;;;;;;768.80;1740.80;;;;;;5069601;28;20680;-57
2022/08/07 10:50:44;;;;;;;;;;;768.90;1740.80;;;;;;5070400;28;20042;-56
2022/08/07 10:53:15;;;;;;;;;;;768.90;1740.80;;;;;;5069895;28;20062;-55
2022/08/07 10:55:49;;;;;;;;;;;768.70;1740.80;;;;;;5069790;28;20255;-57
2022/08/07 10:58:19;;;;;;;;;;;768.80;1740.80;;;;;;5069600;28;20375;-56
2022/08/07 11:00:51;;;;;;;;;;;768.90;1740.80;;;;;;5068683;28;19921;-57
2022/08/07 11:03:49;;;;;;;;;;;768.90;1740.80;;;;;;5069723;28;20424;-55
2022/08/07 11:06:18;;;;;;;;;;;768.90;1740.80;;;;;;5047158;28;19936;-56
2022/08/07 11:09:01;;;;;;;;;;;768.60;1740.80;;;;;;5047049;28;19955;-55
2022/08/07 11:11:42;;;;;;;;;;;768.90;1766.40;;;;;;5042189;28;20188;-57
2022/08/07 11:14:21;;;;;;;;;;;768.90;1715.20;;;;;;5046049;28;19967;-54
2022/08/07 11:16:53;;;;;;;;;;;768.80;1740.80;;;;;;5046991;28;19908;-54
2022/08/07 11:19:33;;;;;;;;;;;793.60;1766.40;;;;;;5046639;28;20356;-56
2022/08/07 11:21:59;;;;;;;;;;;793.60;1740.80;;;;;;5046827;28;19952;-56
2022/08/07 11:24:32;;;;;;;;;;;793.60;1766.40;;;;;;5045863;28;19949;-55
2022/08/07 11:27:02;;;;;;;;;;;793.70;1740.80;;;;;;5044629;28;19924;-56
2022/08/07 11:29:32;;;;;;;;;;;793.90;1740.80;;;;;;5046336;28;20119;-57
2022/08/07 11:32:19;;;;;;;;;;;794.00;1766.40;;;;;;5046787;28;19917;-54
2022/08/07 11:34:47;;;;;;;;;;;794.00;1740.80;;;;;;5046838;28;20007;-55
2022/08/07 11:37:36;;;;;;;;;;;794.00;1715.20;;;;;;5046630;28;19912;-55
2022/08/07 11:40:08;;;;;;;;;;;794.20;1715.20;;;;;;5006497;28;20282;-55
2022/08/07 11:42:51;;;;;;;;;;;794.00;1715.20;;;;;;5022424;28;20406;-55
2022/08/07 11:45:23;;;;;;;;;;;794.20;1715.20;;;;;;5026650;28;19909;-58
2022/08/07 11:48:11;;;;;;;;;;;794.40;1689.60;;;;;;5026734;28;19927;-57
2022/08/07 11:50:55;;;;;;;;;;;819.30;1689.60;;;;;;5026835;28;20142;-54
2022/08/07 11:53:30;;;;;;;;;;;819.20;1689.60;;;;;;5026121;28;19913;-54
2022/08/07 11:55:58;;;;;;;;;;;794.50;1689.60;;;;;;5026793;28;20007;-54
2022/08/07 11:58:23;;;;;;;;;;;819.20;1664.00;;;;;;5026478;28;19909;-55
2022/08/07 12:01:07;;;;;;;;;;;819.40;1664.00;;;;;;5026352;28;19925;-55
2022/08/07 12:03:43;;;;;;;;;;;819.70;1638.40;;;;;;5026172;28;19913;-56
2022/08/07 12:06:11;;;;;;;;;;;819.30;1664.00;;;;;;5026059;28;19924;-55
2022/08/07 12:08:48;;;;;;;;;;;794.50;1664.00;;;;;;5026567;28;19921;-55
2022/08/07 12:11:16;;;;;;;;;;;794.50;1664.00;;;;;;5026371;28;19917;-54
2022/08/07 12:13:55;;;;;;;;;;;794.40;1689.60;;;;;;5026288;28;19975;-55
2022/08/07 12:16:24;;;;;;;;;;;794.50;1689.60;;;;;;5035140;28;19912;-54
2022/08/07 12:18:54;;;;;;;;;;;794.50;1664.00;;;;;;5068464;28;19912;-55
2022/08/07 12:21:23;;;;;;;;;;;794.50;1664.00;;;;;;5054229;28;19944;-56
2022/08/07 12:23:51;;;;;;;;;;;794.40;1664.00;;;;;;5048903;28;19913;-54
2022/08/07 12:26:26;;;;;;;;;;;794.10;1689.60;;;;;;5048602;28;19920;-54
2022/08/07 12:29:05;;;;;;;;;;;794.20;1715.20;;;;;;5049056;28;20532;-55
2022/08/07 12:31:36;;;;;;;;;;;794.40;1689.60;;;;;;5051790;28;19908;-55
2022/08/07 12:34:03;;;;;;;;;;;794.10;1689.60;;;;;;5052362;28;19990;-55
2022/08/07 12:36:29;;;;;;;;;;;794.40;1715.20;;;;;;5052655;28;19909;-55
2022/08/07 12:38:58;;;;;;;;;;;819.30;1689.60;;;;;;5052440;28;19916;-55
2022/08/07 12:41:25;;;;;;;;;;;819.20;1689.60;;;;;;5052410;28;19913;-56
2022/08/07 12:43:53;;;;;;;;;;;819.30;1664.00;;;;;;5052008;28;19920;-54
2022/08/07 12:46:30;;;;;;;;;;;794.50;1664.00;;;;;;5052277;28;19917;-54
2022/08/07 12:49:01;;;;;;;;;;;819.60;1664.00;;;;;;5052381;28;19909;-56
2022/08/07 12:51:30;;;;;;;;;;;819.60;1638.40;;;;;;5052449;28;19913;-55
2022/08/07 12:53:59;;;;;;;;;;;819.70;1638.40;;;;;;5052331;28;19909;-55
2022/08/07 12:56:33;;;;;;;;;;;819.90;1638.40;;;;;;5052034;28;19956;-55
2022/08/07 12:59:00;;;;;;;;;;;820.00;1638.40;;;;;;5051909;28;19916;-55
2022/08/07 13:01:28;;;;;;;;;;;820.00;1612.80;;;;;;5051881;28;19990;-55
2022/08/07 13:03:59;;;;;;;;;;;820.10;1612.80;;;;;;5052151;28;19921;-55
2022/08/07 13:06:24;;;;;;;;;;;844.90;1612.80;;;;;;5051775;28;19966;-55
2022/08/07 13:08:55;;;;;;;;;;;844.90;1612.80;;;;;;5051705;28;19913;-55
2022/08/07 13:11:20;;;;;;;;;;;820.00;1612.80;;;;;;5051667;28;19913;-54
2022/08/07 13:13:54;;;;;;;;;;;819.90;1612.80;;;;;;5051983;28;20259;-55
2022/08/07 13:16:32;;;;;;;;;;;819.90;1612.80;;;;;;5053108;28;20280;-55
2022/08/07 13:19:16;;;;;;;;;;;820.10;1612.80;;;;;;5054180;28;19912;-55
2022/08/07 13:21:44;;;;;;;;;;;819.60;1612.80;;;;;;5053668;28;19956;-54
2022/08/07 13:24:10;;;;;;;;;;;819.60;1612.80;;;;;;5054209;28;20355;-55
2022/08/07 13:26:41;;;;;;;;;;;819.20;1612.80;;;;;;5053700;28;19920;-55
2022/08/07 13:29:19;;;;;;;;;;;819.20;1638.40;;;;;;5053870;28;19909;-56
2022/08/07 13:31:49;;;;;;;;;;;819.40;1638.40;;;;;;5053302;28;19959;-54
2022/08/07 13:34:14;;;;;;;;;;;819.70;1612.80;;;;;;5053593;28;20402;-56
2022/08/07 13:36:42;;;;;;;;;;;819.70;1612.80;;;;;;5053644;28;19955;-55
2022/08/07 13:39:13;;;;;;;;;;;819.90;1612.80;;;;;;5053840;28;19914;-54
2022/08/07 13:41:42;;;;;;;;;;;820.00;1587.20;;;;;;5052911;28;19995;-54
2022/08/07 13:44:09;;;;;;;;;;;820.00;1612.80;;;;;;5050977;28;19913;-55
2022/08/07 13:46:37;;;;;;;;;;;819.80;1612.80;;;;;;5051092;28;19920;-55
2022/08/07 13:49:04;;;;;;;;;;;819.80;1612.80;;;;;;5062448;28;19912;-53
2022/08/07 13:51:32;;;;;;;;;;;819.90;1587.20;;;;;;5070010;28;19916;-54
2022/08/07 13:54:03;;;;;;;;;;;819.60;1612.80;;;;;;5068984;28;19920;-56
2022/08/07 13:56:31;;;;;;;;;;;819.30;1612.80;;;;;;5068463;28;19915;-55
2022/08/07 13:58:59;;;;;;;;;;;819.40;1612.80;;;;;;5068759;28;19909;-58